Time;durP1;ratioP1;P1;durP2;ratioP2;P2;SDS_P1;SDS_P2;PMS_P1;PMS_P2;Temp;Humidity;BMP_temperature;BMP_pressure;BME280_temperature;BME280_humidity;BME280_pressure;Samples;Min_cycle;Max_cycle;Signal;HPM_P1;HPM_P2
2024/02/18 00:00:28;;;;;;;16.23;9.20;;;3.70;99.90;;;;;;4183833;28;20503;-75
2024/02/18 00:02:30;;;;;;;17.47;10.10;;;3.70;99.90;;;;;;4190259;28;20499;-75
2024/02/18 00:04:32;;;;;;;20.10;10.63;;;3.70;99.90;;;;;;4186243;28;20454;-75
2024/02/18 00:06:34;;;;;;;18.33;9.40;;;3.70;99.90;;;;;;4185753;28;20490;-74
2024/02/18 00:08:35;;;;;;;16.17;9.13;;;3.70;99.90;;;;;;4189680;28;20456;-74
2024/02/18 00:10:37;;;;;;;18.17;9.00;;;3.70;99.90;;;;;;4183759;28;20485;-74
2024/02/18 00:12:39;;;;;;;18.10;9.53;;;3.60;99.90;;;;;;4193594;28;20235;-75
2024/02/18 00:14:41;;;;;;;14.03;8.30;;;3.60;99.90;;;;;;4193262;28;20453;-74
2024/02/18 00:16:44;;;;;;;16.37;9.43;;;3.60;99.90;;;;;;4190925;28;20459;-74
2024/02/18 00:18:46;;;;;;;19.20;10.17;;;3.60;99.90;;;;;;4180452;28;20455;-74
2024/02/18 00:20:47;;;;;;;20.40;10.67;;;3.60;99.90;;;;;;4187485;28;21003;-74
2024/02/18 00:22:48;;;;;;;18.87;9.67;;;3.60;99.90;;;;;;4185384;28;20471;-74
2024/02/18 00:24:51;;;;;;;15.90;9.07;;;3.60;99.90;;;;;;4188277;28;20582;-74
2024/02/18 00:26:53;;;;;;;13.97;8.43;;;3.50;99.90;;;;;;4188905;28;20478;-74
2024/02/18 00:28:55;;;;;;;14.37;9.20;;;3.50;99.90;;;;;;4189773;28;20519;-74
2024/02/18 00:30:57;;;;;;;15.70;9.20;;;3.40;99.90;;;;;;4189691;28;20576;-75
2024/02/18 00:33:00;;;;;;;16.37;9.27;;;3.40;99.90;;;;;;4196087;28;20462;-74
2024/02/18 00:35:02;;;;;;;17.50;9.23;;;3.50;99.90;;;;;;4181833;28;20492;-74
2024/02/18 00:37:04;;;;;;;15.93;8.90;;;3.50;99.90;;;;;;4185558;28;20789;-74
2024/02/18 00:39:09;;;;;;;15.40;8.37;;;3.50;99.90;;;;;;4182079;28;20515;-74
2024/02/18 00:41:10;;;;;;;15.80;8.17;;;3.50;99.90;;;;;;4190018;28;20472;-74
2024/02/18 00:43:12;;;;;;;13.93;8.60;;;3.40;99.90;;;;;;4189504;28;20519;-75
2024/02/18 00:45:15;;;;;;;16.73;8.67;;;3.40;99.90;;;;;;4188752;28;20954;-75
2024/02/18 00:47:17;;;;;;;13.27;8.17;;;3.40;99.90;;;;;;4191530;28;21016;-75
2024/02/18 00:49:21;;;;;;;15.90;8.50;;;3.30;99.90;;;;;;4191479;28;20515;-75
2024/02/18 00:51:23;;;;;;;17.07;8.20;;;3.30;99.90;;;;;;4190797;28;20461;-75
2024/02/18 00:53:24;;;;;;;13.30;8.03;;;3.30;99.90;;;;;;4189850;28;20470;-75
2024/02/18 00:55:26;;;;;;;12.83;7.33;;;3.30;99.90;;;;;;4186869;28;20476;-75
2024/02/18 00:57:28;;;;;;;14.40;8.40;;;3.30;99.90;;;;;;4185481;28;20878;-75
2024/02/18 00:59:30;;;;;;;14.97;8.97;;;3.30;99.90;;;;;;4188470;28;20980;-75
2024/02/18 01:01:32;;;;;;;16.77;8.30;;;3.30;99.90;;;;;;4186346;28;20454;-75
2024/02/18 01:03:35;;;;;;;17.93;8.80;;;3.30;99.90;;;;;;4186174;28;20629;-75
2024/02/18 01:05:38;;;;;;;15.80;9.10;;;3.20;99.90;;;;;;4186795;28;21175;-75
2024/02/18 01:07:40;;;;;;;13.90;8.60;;;3.20;99.90;;;;;;4182886;28;20485;-74
2024/02/18 01:09:43;;;;;;;14.87;8.23;;;3.20;99.90;;;;;;4186933;28;20466;-74
2024/02/18 01:11:45;;;;;;;20.93;10.00;;;3.20;99.90;;;;;;4185899;28;20500;-74
2024/02/18 01:13:47;;;;;;;18.17;9.33;;;3.20;99.90;;;;;;4186514;28;20457;-74
2024/02/18 01:15:49;;;;;;;15.80;8.70;;;3.20;99.90;;;;;;4186738;28;20514;-74
2024/02/18 01:17:51;;;;;;;16.10;8.80;;;3.20;99.90;;;;;;4186342;28;20529;-74
2024/02/18 01:19:57;;;;;;;16.33;8.97;;;3.20;99.90;;;;;;4184618;28;20488;-73
2024/02/18 01:22:00;;;;;;;17.80;10.13;;;3.20;99.90;;;;;;4181528;28;21009;-73
2024/02/18 01:24:02;;;;;;;17.63;9.03;;;3.20;99.90;;;;;;4180862;28;20719;-73
2024/02/18 01:26:04;;;;;;;16.37;9.17;;;3.20;99.90;;;;;;4188674;28;20461;-73
2024/02/18 01:28:06;;;;;;;18.93;9.50;;;3.20;99.90;;;;;;4183797;28;20483;-73
2024/02/18 01:30:09;;;;;;;15.70;9.13;;;3.10;99.90;;;;;;4189146;28;20882;-73
2024/02/18 01:32:11;;;;;;;16.17;8.80;;;3.10;99.90;;;;;;4187772;28;21538;-74
2024/02/18 01:34:13;;;;;;;16.60;8.47;;;3.10;99.90;;;;;;4183430;28;20903;-73
2024/02/18 01:36:14;;;;;;;15.30;8.67;;;3.10;99.90;;;;;;4186916;28;20449;-73
2024/02/18 01:38:17;;;;;;;20.90;11.00;;;3.10;99.90;;;;;;4186828;28;20486;-73
2024/02/18 01:40:19;;;;;;;18.40;9.90;;;3.00;99.90;;;;;;4183828;28;20458;-73
2024/02/18 01:42:21;;;;;;;21.13;10.03;;;3.00;99.90;;;;;;4185958;28;20475;-74
2024/02/18 01:44:23;;;;;;;19.40;9.83;;;3.00;99.90;;;;;;4187880;28;20445;-73
2024/02/18 01:46:25;;;;;;;18.50;9.70;;;3.00;99.90;;;;;;4186188;28;20460;-73
2024/02/18 01:48:27;;;;;;;17.00;9.40;;;3.00;99.90;;;;;;4185769;28;20496;-73
2024/02/18 01:50:29;;;;;;;17.70;9.27;;;3.00;99.90;;;;;;4186763;28;20473;-73
2024/02/18 01:52:30;;;;;;;16.13;9.10;;;3.00;99.90;;;;;;4185432;28;20553;-73
2024/02/18 01:54:34;;;;;;;20.87;9.87;;;3.00;99.90;;;;;;4185912;28;20473;-73
2024/02/18 01:56:36;;;;;;;17.93;9.50;;;2.90;99.90;;;;;;4187449;28;20896;-73
2024/02/18 01:58:38;;;;;;;19.50;10.40;;;3.00;99.90;;;;;;4183014;28;20464;-73
2024/02/18 02:00:41;;;;;;;23.73;12.73;;;2.90;99.90;;;;;;4181816;28;20510;-73
2024/02/18 02:02:44;;;;;;;27.20;12.73;;;3.00;99.90;;;;;;4189268;28;20529;-73
2024/02/18 02:04:51;;;;;;;25.20;11.73;;;3.00;99.90;;;;;;4183882;28;20464;-73
2024/02/18 02:06:52;;;;;;;27.17;11.27;;;3.00;99.90;;;;;;4185184;28;21087;-73
2024/02/18 02:08:55;;;;;;;27.17;11.27;;;3.00;99.90;;;;;;4185594;28;20456;-73
2024/02/18 02:10:59;;;;;;;21.83;10.93;;;3.00;99.90;;;;;;4186123;28;20977;-73
2024/02/18 02:13:01;;;;;;;19.07;10.23;;;3.00;99.90;;;;;;4185586;28;20598;-73
2024/02/18 02:15:04;;;;;;;21.47;10.10;;;3.00;99.90;;;;;;4186116;28;20457;-73
2024/02/18 02:17:07;;;;;;;20.33;9.90;;;2.90;99.90;;;;;;4184774;28;20464;-73
2024/02/18 02:19:09;;;;;;;16.90;8.57;;;2.90;99.90;;;;;;4184345;28;20466;-73
2024/02/18 02:21:11;;;;;;;16.70;9.30;;;2.90;99.90;;;;;;4186249;28;21023;-73
2024/02/18 02:23:13;;;;;;;16.97;8.90;;;2.90;99.90;;;;;;4183277;28;20886;-73
2024/02/18 02:25:15;;;;;;;16.97;8.97;;;2.90;99.90;;;;;;4183823;28;20568;-73
2024/02/18 02:27:26;;;;;;;16.00;8.93;;;2.80;99.90;;;;;;4184142;28;20478;-73
2024/02/18 02:29:30;;;;;;;15.97;9.17;;;2.80;99.90;;;;;;4182485;28;20802;-73
2024/02/18 02:31:32;;;;;;;18.33;9.13;;;2.80;99.90;;;;;;4185390;28;20497;-73
2024/02/18 02:33:34;;;;;;;19.90;9.90;;;2.80;99.90;;;;;;4187762;28;20472;-73
2024/02/18 02:35:37;;;;;;;16.83;9.10;;;2.70;99.90;;;;;;4181788;28;20472;-73
2024/02/18 02:37:39;;;;;;;17.63;9.90;;;2.70;99.90;;;;;;4185706;28;20441;-73
2024/02/18 02:39:41;;;;;;;15.93;8.27;;;2.70;99.90;;;;;;4183761;28;20527;-73
2024/02/18 02:41:43;;;;;;;16.67;8.30;;;2.70;99.90;;;;;;4183336;28;20471;-73
2024/02/18 02:43:45;;;;;;;17.23;9.53;;;2.70;99.90;;;;;;4184670;28;20540;-73
2024/02/18 02:45:47;;;;;;;15.03;8.93;;;2.60;99.90;;;;;;4180995;28;20463;-73
2024/02/18 02:47:51;;;;;;;16.77;9.10;;;2.60;99.90;;;;;;4185202;28;20475;-73
2024/02/18 02:49:53;;;;;;;17.80;8.77;;;2.60;99.90;;;;;;4184953;28;20476;-73
2024/02/18 02:51:55;;;;;;;16.97;8.97;;;2.60;99.90;;;;;;4183516;28;20475;-73
2024/02/18 02:54:00;;;;;;;17.57;9.17;;;2.50;99.90;;;;;;4184247;28;20463;-73
2024/02/18 02:56:05;;;;;;;16.87;9.30;;;2.50;99.90;;;;;;4180856;28;20437;-72
2024/02/18 02:58:07;;;;;;;16.30;9.23;;;2.50;99.90;;;;;;4183058;28;20478;-73
2024/02/18 03:00:11;;;;;;;16.90;9.17;;;2.50;99.90;;;;;;4183533;28;20472;-73
2024/02/18 03:02:14;;;;;;;18.33;9.87;;;2.50;99.90;;;;;;4189901;28;20476;-73
2024/02/18 03:04:17;;;;;;;19.17;10.47;;;2.50;99.90;;;;;;4189584;28;20535;-73
2024/02/18 03:06:19;;;;;;;17.77;9.93;;;2.50;99.90;;;;;;4189269;28;20447;-73
2024/02/18 03:08:21;;;;;;;23.37;10.67;;;2.50;99.90;;;;;;4191621;28;20509;-73
2024/02/18 03:10:24;;;;;;;17.60;9.20;;;2.50;99.90;;;;;;4189342;28;20813;-73
2024/02/18 03:12:26;;;;;;;18.40;10.33;;;2.50;99.90;;;;;;4184849;28;20990;-73
2024/02/18 03:14:28;;;;;;;17.77;10.20;;;2.50;99.90;;;;;;4187756;28;20500;-73
2024/02/18 03:16:29;;;;;;;19.53;10.57;;;2.50;99.90;;;;;;4188056;28;20543;-73
2024/02/18 03:18:32;;;;;;;14.57;9.17;;;2.50;99.90;;;;;;4190068;28;20451;-73
2024/02/18 03:20:34;;;;;;;20.77;10.63;;;2.50;99.90;;;;;;4189831;28;20222;-73
2024/02/18 03:22:36;;;;;;;17.60;9.03;;;2.40;99.90;;;;;;4187290;28;20476;-73
2024/02/18 03:24:41;;;;;;;21.70;9.77;;;2.40;99.90;;;;;;4183420;28;20491;-73
2024/02/18 03:26:43;;;;;;;18.93;9.97;;;2.50;99.90;;;;;;4185801;28;20536;-73
2024/02/18 03:28:44;;;;;;;20.03;10.60;;;2.50;99.90;;;;;;4183424;28;21004;-73
2024/02/18 03:30:50;;;;;;;18.30;9.90;;;2.40;99.90;;;;;;4183261;28;21007;-73
2024/02/18 03:32:52;;;;;;;22.50;11.57;;;2.50;99.90;;;;;;4186188;28;21368;-73
2024/02/18 03:34:55;;;;;;;19.30;9.47;;;2.40;99.90;;;;;;4184546;28;20467;-73
2024/02/18 03:36:57;;;;;;;19.40;10.23;;;2.40;99.90;;;;;;4188999;28;20519;-73
2024/02/18 03:39:00;;;;;;;20.33;10.70;;;2.40;99.90;;;;;;4184833;28;20878;-73
2024/02/18 03:41:05;;;;;;;19.10;10.20;;;2.40;99.90;;;;;;4188812;28;20461;-73
2024/02/18 03:43:07;;;;;;;21.77;11.47;;;2.40;99.90;;;;;;4187661;28;20463;-73
2024/02/18 03:45:08;;;;;;;18.80;10.20;;;2.40;99.90;;;;;;4186614;28;20453;-72
2024/02/18 03:47:10;;;;;;;23.17;10.83;;;2.40;99.90;;;;;;4189790;28;20513;-73
2024/02/18 03:49:12;;;;;;;21.23;11.63;;;2.40;99.90;;;;;;4187845;28;20467;-73
2024/02/18 03:51:15;;;;;;;23.30;11.03;;;2.40;99.90;;;;;;4186853;28;20563;-73
2024/02/18 03:53:17;;;;;;;19.27;11.07;;;2.40;99.90;;;;;;4185847;28;20564;-73
2024/02/18 03:55:19;;;;;;;22.97;12.27;;;2.40;99.90;;;;;;4188475;28;20455;-73
2024/02/18 03:57:21;;;;;;;23.00;11.23;;;2.50;99.90;;;;;;4184932;28;20474;-73
2024/02/18 03:59:23;;;;;;;24.60;10.53;;;2.40;99.90;;;;;;4187863;28;20480;-73
2024/02/18 04:01:25;;;;;;;20.40;10.40;;;2.40;99.90;;;;;;4186552;28;20460;-73
2024/02/18 04:03:27;;;;;;;23.23;11.60;;;2.50;99.90;;;;;;4188807;28;20575;-73
2024/02/18 04:05:29;;;;;;;17.73;10.10;;;2.40;99.90;;;;;;4187214;28;20459;-73
2024/02/18 04:07:32;;;;;;;19.70;10.17;;;2.50;99.90;;;;;;4187398;28;20484;-73
2024/02/18 04:09:34;;;;;;;19.93;10.60;;;2.40;99.90;;;;;;4188706;28;20456;-73
2024/02/18 04:11:36;;;;;;;20.93;10.77;;;2.40;99.90;;;;;;4189847;28;20464;-73
2024/02/18 04:13:38;;;;;;;21.27;10.87;;;2.50;99.90;;;;;;4190206;28;20468;-73
2024/02/18 04:15:41;;;;;;;20.83;10.53;;;2.40;99.90;;;;;;4190263;28;21169;-73
2024/02/18 04:17:42;;;;;;;22.07;10.77;;;2.40;99.90;;;;;;4186913;28;20427;-74
2024/02/18 04:19:43;;;;;;;21.17;10.67;;;2.40;99.90;;;;;;4182917;28;20453;-73
2024/02/18 04:21:45;;;;;;;19.60;9.80;;;2.40;99.90;;;;;;4190446;28;20882;-73
2024/02/18 04:23:48;;;;;;;18.87;10.13;;;2.40;99.90;;;;;;4184877;28;20202;-73
2024/02/18 04:25:50;;;;;;;18.50;9.60;;;2.40;99.90;;;;;;4191248;28;20573;-73
2024/02/18 04:27:52;;;;;;;21.37;9.87;;;2.40;99.90;;;;;;4187258;28;21035;-73
2024/02/18 04:29:54;;;;;;;24.70;10.63;;;2.40;99.90;;;;;;4187330;28;20456;-73
2024/02/18 04:31:56;;;;;;;20.30;11.20;;;2.30;99.90;;;;;;4187605;28;20441;-73
2024/02/18 04:33:58;;;;;;;19.13;9.93;;;2.30;99.90;;;;;;4186994;28;20469;-73
2024/02/18 04:36:00;;;;;;;18.93;9.93;;;2.30;99.90;;;;;;4184804;28;20449;-73
2024/02/18 04:38:03;;;;;;;22.13;10.97;;;2.20;99.90;;;;;;4185153;28;20820;-73
2024/02/18 04:40:08;;;;;;;24.00;11.00;;;2.30;99.90;;;;;;4185469;28;21035;-73
2024/02/18 04:42:09;;;;;;;20.27;10.63;;;2.30;99.90;;;;;;4186084;28;20849;-72
2024/02/18 04:44:11;;;;;;;23.53;11.23;;;2.30;99.90;;;;;;4188409;28;20488;-73
2024/02/18 04:46:12;;;;;;;19.20;10.27;;;2.30;99.90;;;;;;4189364;28;20644;-73
2024/02/18 04:48:15;;;;;;;19.70;10.60;;;2.50;99.90;;;;;;4186408;28;20480;-73
2024/02/18 04:50:17;;;;;;;22.13;11.17;;;2.30;99.90;;;;;;4185104;28;20469;-73
2024/02/18 04:52:19;;;;;;;20.07;10.57;;;2.30;99.90;;;;;;4187619;28;21221;-73
2024/02/18 04:54:21;;;;;;;21.97;10.17;;;2.30;99.90;;;;;;4187449;28;20455;-73
2024/02/18 04:56:24;;;;;;;18.30;9.43;;;2.30;99.90;;;;;;4189254;28;20541;-73
2024/02/18 04:58:26;;;;;;;20.60;10.10;;;2.30;99.90;;;;;;4185224;28;20484;-72
2024/02/18 05:00:28;;;;;;;22.07;10.27;;;2.30;99.90;;;;;;4186683;28;20499;-73
2024/02/18 05:02:30;;;;;;;22.17;10.60;;;2.30;99.90;;;;;;4186564;28;20504;-73
2024/02/18 05:04:31;;;;;;;20.23;9.40;;;2.30;99.90;;;;;;4186049;28;20459;-75
2024/02/18 05:06:35;;;;;;;21.60;10.47;;;2.30;99.90;;;;;;4190608;28;20534;-73
2024/02/18 05:08:36;;;;;;;21.10;10.17;;;2.30;99.90;;;;;;4191180;28;21235;-74
2024/02/18 05:10:39;;;;;;;19.07;9.43;;;2.30;99.90;;;;;;4188083;28;20437;-74
2024/02/18 05:12:42;;;;;;;17.50;9.03;;;2.30;99.90;;;;;;4194382;28;20503;-75
2024/02/18 05:14:44;;;;;;;19.77;10.13;;;2.30;99.90;;;;;;4187646;28;20455;-74
2024/02/18 05:16:46;;;;;;;18.43;9.50;;;2.30;99.90;;;;;;4188998;28;20551;-74
2024/02/18 05:18:48;;;;;;;18.37;9.67;;;2.40;99.90;;;;;;4188301;28;20437;-74
2024/02/18 05:20:50;;;;;;;18.60;9.00;;;2.30;99.90;;;;;;4185748;28;20495;-75
2024/02/18 05:22:52;;;;;;;15.87;8.43;;;2.30;99.90;;;;;;4195661;28;20555;-75
2024/02/18 05:24:54;;;;;;;16.67;8.87;;;2.30;99.90;;;;;;4188622;28;20449;-75
2024/02/18 05:26:56;;;;;;;16.87;8.33;;;2.40;99.90;;;;;;4185492;28;20916;-75
2024/02/18 05:28:59;;;;;;;17.63;8.87;;;2.40;99.90;;;;;;4186576;28;20568;-75
2024/02/18 05:31:00;;;;;;;16.50;8.73;;;2.40;99.90;;;;;;4186194;28;20503;-75
2024/02/18 05:33:03;;;;;;;18.90;8.97;;;2.40;99.90;;;;;;4186800;28;20472;-75
2024/02/18 05:35:06;;;;;;;16.67;8.30;;;2.40;99.90;;;;;;4190872;28;20867;-75
2024/02/18 05:37:07;;;;;;;15.57;8.10;;;2.50;99.90;;;;;;4189750;28;20437;-75
2024/02/18 05:39:08;;;;;;;14.73;7.73;;;2.50;99.90;;;;;;4183406;28;20500;-75
2024/02/18 05:41:10;;;;;;;21.30;9.80;;;2.50;99.90;;;;;;4189872;28;20457;-75
2024/02/18 05:43:12;;;;;;;17.00;9.27;;;2.60;99.90;;;;;;4184350;28;20575;-75
2024/02/18 05:45:20;;;;;;;18.17;9.50;;;2.60;99.90;;;;;;4187465;28;20503;-75
2024/02/18 05:47:22;;;;;;;15.57;8.00;;;2.70;99.90;;;;;;4186417;28;20476;-74
2024/02/18 05:49:24;;;;;;;17.70;8.73;;;2.70;99.90;;;;;;4178979;28;20583;-75
2024/02/18 05:51:25;;;;;;;19.33;9.10;;;2.70;99.90;;;;;;4186990;28;20475;-75
2024/02/18 05:53:27;;;;;;;17.67;9.00;;;2.80;99.90;;;;;;4185370;28;20535;-75
2024/02/18 05:55:29;;;;;;;21.27;9.60;;;2.80;99.90;;;;;;4182788;28;20473;-75
2024/02/18 05:57:31;;;;;;;19.50;9.30;;;2.80;99.90;;;;;;4185902;28;20533;-75
2024/02/18 05:59:33;;;;;;;20.10;10.27;;;2.90;99.90;;;;;;4179285;28;20485;-74
2024/02/18 06:01:36;;;;;;;18.40;8.73;;;2.80;99.90;;;;;;4178660;28;20485;-75
2024/02/18 06:03:38;;;;;;;17.50;8.63;;;2.90;99.90;;;;;;4180567;28;20539;-74
2024/02/18 06:05:41;;;;;;;18.93;9.57;;;2.90;99.90;;;;;;4188373;28;20941;-74
2024/02/18 06:07:43;;;;;;;17.73;9.73;;;2.90;99.90;;;;;;4189390;28;20452;-74
2024/02/18 06:09:45;;;;;;;17.43;8.50;;;2.90;99.90;;;;;;4185672;28;20496;-75
2024/02/18 06:11:48;;;;;;;16.70;8.87;;;2.90;99.90;;;;;;4186641;28;20448;-75
2024/02/18 06:13:50;;;;;;;24.27;11.07;;;2.90;99.90;;;;;;4188610;28;20453;-74
2024/02/18 06:15:51;;;;;;;20.10;10.27;;;2.90;99.90;;;;;;4183014;28;20464;-75
2024/02/18 06:17:57;;;;;;;21.47;10.50;;;3.00;99.90;;;;;;4186614;28;20465;-74
2024/02/18 06:19:59;;;;;;;17.17;9.23;;;3.00;99.90;;;;;;4184353;28;20967;-75
2024/02/18 06:22:01;;;;;;;17.73;9.10;;;3.00;99.90;;;;;;4182508;28;20460;-74
2024/02/18 06:24:03;;;;;;;22.87;11.20;;;3.10;99.90;;;;;;4183116;28;20987;-74
2024/02/18 06:26:05;;;;;;;18.80;9.87;;;3.10;99.90;;;;;;4182720;28;20536;-74
2024/02/18 06:28:08;;;;;;;18.07;9.73;;;3.20;99.90;;;;;;4187593;28;20540;-74
2024/02/18 06:30:11;;;;;;;18.17;9.53;;;3.20;99.90;;;;;;4177849;28;20457;-74
2024/02/18 06:32:13;;;;;;;19.50;9.57;;;3.20;99.90;;;;;;4184467;28;20461;-74
2024/02/18 06:34:16;;;;;;;26.47;10.50;;;3.20;99.90;;;;;;4188114;28;20457;-75
2024/02/18 06:36:18;;;;;;;19.17;9.57;;;3.20;99.90;;;;;;4184770;28;20532;-75
2024/02/18 06:38:20;;;;;;;24.30;11.57;;;3.20;99.90;;;;;;4186075;28;20972;-75
2024/02/18 06:40:22;;;;;;;22.17;10.60;;;3.30;99.90;;;;;;4181673;28;20965;-75
2024/02/18 06:42:23;;;;;;;22.97;10.73;;;3.20;99.90;;;;;;4184523;28;20503;-75
2024/02/18 06:44:25;;;;;;;21.43;10.73;;;3.30;99.90;;;;;;4184334;28;20457;-74
2024/02/18 06:46:26;;;;;;;22.47;10.93;;;3.30;99.90;;;;;;4181350;28;20235;-75
2024/02/18 06:48:28;;;;;;;21.43;10.70;;;3.30;99.90;;;;;;4184774;28;20966;-74
2024/02/18 06:50:31;;;;;;;22.07;11.03;;;3.30;99.90;;;;;;4185776;28;20239;-75
2024/02/18 06:52:33;;;;;;;25.30;12.17;;;3.30;99.90;;;;;;4184983;28;20474;-74
2024/02/18 06:54:35;;;;;;;23.87;11.80;;;3.40;99.90;;;;;;4186490;28;20957;-74
2024/02/18 06:56:37;;;;;;;22.03;10.57;;;3.40;99.90;;;;;;4185788;28;20446;-74
2024/02/18 06:58:38;;;;;;;26.73;11.83;;;3.40;99.90;;;;;;4188650;28;20977;-76
2024/02/18 07:00:41;;;;;;;22.63;10.53;;;3.40;99.90;;;;;;4188025;28;20972;-75
2024/02/18 07:02:43;;;;;;;22.17;11.40;;;3.40;99.90;;;;;;4185989;28;20509;-73
2024/02/18 07:04:44;;;;;;;26.30;12.07;;;3.40;99.90;;;;;;4183894;28;20447;-74
2024/02/18 07:06:48;;;;;;;28.23;12.80;;;3.50;99.90;;;;;;4185560;28;20461;-74
2024/02/18 07:08:50;;;;;;;29.57;12.97;;;3.50;99.90;;;;;;4185131;28;21114;-74
2024/02/18 07:10:51;;;;;;;29.43;13.43;;;3.50;99.90;;;;;;4185587;28;20977;-73
2024/02/18 07:12:53;;;;;;;24.53;12.63;;;3.50;99.90;;;;;;4184902;28;20477;-74
2024/02/18 07:14:55;;;;;;;25.27;13.13;;;3.60;99.90;;;;;;4183204;28;20501;-73
2024/02/18 07:16:57;;;;;;;25.70;13.00;;;3.60;99.90;;;;;;4183141;28;20445;-74
2024/02/18 07:18:59;;;;;;;28.30;13.50;;;3.60;99.90;;;;;;4180238;28;20462;-74
2024/02/18 07:21:01;;;;;;;30.33;12.47;;;3.60;99.90;;;;;;4184680;28;20461;-75
2024/02/18 07:23:06;;;;;;;25.80;12.30;;;3.70;99.90;;;;;;4184106;28;20466;-74
2024/02/18 07:25:09;;;;;;;26.97;12.90;;;3.70;99.90;;;;;;4182115;28;20449;-74
2024/02/18 07:27:11;;;;;;;24.27;12.53;;;3.70;99.90;;;;;;4183002;28;20477;-75
2024/02/18 07:29:13;;;;;;;24.97;12.23;;;3.70;99.90;;;;;;4184942;28;20483;-79
2024/02/18 07:31:16;;;;;;;28.97;13.70;;;3.80;99.90;;;;;;4179947;28;20447;-74
2024/02/18 07:33:18;;;;;;;27.20;12.83;;;3.90;99.90;;;;;;4182294;28;21085;-77
2024/02/18 07:35:20;;;;;;;24.17;12.57;;;3.90;99.90;;;;;;4181880;28;20546;-78
2024/02/18 07:37:22;;;;;;;26.47;13.17;;;3.90;99.90;;;;;;4188231;28;20461;-78
2024/02/18 07:39:26;;;;;;;28.13;13.50;;;4.00;99.90;;;;;;4185431;28;20494;-73
2024/02/18 07:41:28;;;;;;;27.87;13.20;;;4.00;99.90;;;;;;4185276;28;20549;-75
2024/02/18 07:43:31;;;;;;;27.60;13.43;;;4.10;99.90;;;;;;4185224;28;20553;-75
2024/02/18 07:45:33;;;;;;;31.00;13.90;;;4.20;99.90;;;;;;4192182;28;20446;-75
2024/02/18 07:47:34;;;;;;;27.37;12.87;;;4.30;99.90;;;;;;4187189;28;20483;-73
2024/02/18 07:49:36;;;;;;;26.53;12.63;;;4.40;99.90;;;;;;4193316;28;20491;-73
2024/02/18 07:51:38;;;;;;;30.87;14.33;;;4.40;99.90;;;;;;4188254;28;20474;-75
2024/02/18 07:53:40;;;;;;;31.90;14.63;;;4.50;99.90;;;;;;4187408;28;20469;-75
2024/02/18 07:55:43;;;;;;;27.63;12.53;;;4.50;99.90;;;;;;4193564;28;21076;-75
2024/02/18 07:57:45;;;;;;;31.83;13.70;;;4.60;99.90;;;;;;4184866;28;20900;-75
2024/02/18 07:59:47;;;;;;;29.47;14.17;;;4.70;99.90;;;;;;4183605;28;20482;-75
2024/02/18 08:01:49;;;;;;;28.83;14.43;;;4.70;99.90;;;;;;4186599;28;20451;-76
2024/02/18 08:03:51;;;;;;;31.50;13.97;;;4.80;99.90;;;;;;4185957;28;20606;-76
2024/02/18 08:05:59;;;;;;;30.40;14.50;;;4.90;99.90;;;;;;4191276;28;20452;-76
2024/02/18 08:08:01;;;;;;;34.77;14.70;;;5.00;99.90;;;;;;4185643;28;20438;-74
2024/02/18 08:10:04;;;;;;;33.50;14.40;;;5.00;99.90;;;;;;4185479;28;20514;-74
2024/02/18 08:12:08;;;;;;;30.20;13.70;;;5.10;99.90;;;;;;4191102;28;21241;-74
2024/02/18 08:14:11;;;;;;;34.40;15.17;;;5.10;99.90;;;;;;4187692;28;20506;-74
2024/02/18 08:16:12;;;;;;;31.20;15.40;;;5.20;99.90;;;;;;4186604;28;20490;-74
2024/02/18 08:18:15;;;;;;;34.30;14.80;;;5.30;99.90;;;;;;4181185;28;20456;-74
2024/02/18 08:20:17;;;;;;;32.00;14.80;;;5.30;99.90;;;;;;4183997;28;21112;-74
2024/02/18 08:22:18;;;;;;;28.03;13.33;;;5.40;99.90;;;;;;4187234;28;20905;-74
2024/02/18 08:24:20;;;;;;;26.57;14.03;;;5.40;99.90;;;;;;4187227;28;20507;-74
2024/02/18 08:26:22;;;;;;;29.67;13.63;;;5.50;99.90;;;;;;4185008;28;20471;-74
2024/02/18 08:28:26;;;;;;;25.80;12.97;;;5.50;99.90;;;;;;4185562;28;20472;-74
2024/02/18 08:30:30;;;;;;;29.10;13.87;;;5.60;99.90;;;;;;4190453;28;20486;-74
2024/02/18 08:32:31;;;;;;;25.23;12.00;;;5.70;99.90;;;;;;4186565;28;20564;-74
2024/02/18 08:34:33;;;;;;;25.87;12.77;;;5.70;99.90;;;;;;4189663;28;20810;-74
2024/02/18 08:36:35;;;;;;;28.43;12.90;;;5.80;99.90;;;;;;4186112;28;20292;-73
2024/02/18 08:38:36;;;;;;;26.63;12.77;;;5.80;99.90;;;;;;4183223;28;20206;-74
2024/02/18 08:40:38;;;;;;;28.60;12.90;;;5.80;99.90;;;;;;4183284;28;20452;-75
2024/02/18 08:42:40;;;;;;;28.43;13.53;;;5.80;99.90;;;;;;4184775;28;20515;-74
2024/02/18 08:44:43;;;;;;;25.60;13.33;;;5.90;99.90;;;;;;4189191;28;20471;-75
2024/02/18 08:46:47;;;;;;;27.43;14.03;;;5.90;99.90;;;;;;4187448;28;20467;-78
2024/02/18 08:48:50;;;;;;;30.40;14.17;;;5.90;99.90;;;;;;4180439;28;20475;-75
2024/02/18 08:50:52;;;;;;;27.93;12.80;;;5.90;99.90;;;;;;4187221;28;20952;-75
2024/02/18 08:52:54;;;;;;;26.03;12.50;;;6.00;99.90;;;;;;4183531;28;20498;-74
2024/02/18 08:54:56;;;;;;;28.40;13.20;;;6.00;99.90;;;;;;4184302;28;20527;-74
2024/02/18 08:56:58;;;;;;;25.17;13.30;;;6.10;99.90;;;;;;4188372;28;20936;-74
2024/02/18 08:59:00;;;;;;;26.50;13.03;;;6.10;99.90;;;;;;4187815;28;20302;-75
2024/02/18 09:01:03;;;;;;;27.20;13.33;;;6.20;99.90;;;;;;4184174;28;20555;-75
2024/02/18 09:03:05;;;;;;;27.30;12.93;;;6.20;99.90;;;;;;4182944;28;20254;-75
2024/02/18 09:05:07;;;;;;;28.13;13.53;;;6.20;99.90;;;;;;4186856;28;20548;-73
2024/02/18 09:07:08;;;;;;;25.57;12.00;;;6.30;99.90;;;;;;4186203;28;21117;-74
2024/02/18 09:09:10;;;;;;;26.67;12.03;;;6.30;99.90;;;;;;4203335;28;20479;-74
2024/02/18 09:11:12;;;;;;;21.10;11.53;;;6.40;99.90;;;;;;4186506;28;20548;-74
2024/02/18 09:13:14;;;;;;;25.40;12.00;;;6.40;99.90;;;;;;4184336;28;20234;-74
2024/02/18 09:15:16;;;;;;;22.50;11.23;;;6.40;99.90;;;;;;4187954;28;20206;-74
2024/02/18 09:17:20;;;;;;;25.47;11.80;;;6.50;99.90;;;;;;4185706;28;20480;-74
2024/02/18 09:19:22;;;;;;;26.77;13.07;;;6.50;99.90;;;;;;4183557;28;20488;-75
2024/02/18 09:21:24;;;;;;;23.13;11.93;;;6.60;99.90;;;;;;4183290;28;20645;-74
2024/02/18 09:23:27;;;;;;;22.97;11.60;;;6.60;99.90;;;;;;4180265;28;20511;-75
2024/02/18 09:25:29;;;;;;;27.93;11.83;;;6.70;99.90;;;;;;4177906;28;20451;-74
2024/02/18 09:27:30;;;;;;;23.80;12.37;;;6.80;99.90;;;;;;4186411;28;21014;-74
2024/02/18 09:29:33;;;;;;;21.67;10.87;;;6.70;99.90;;;;;;4182160;28;20317;-75
2024/02/18 09:31:35;;;;;;;20.53;11.23;;;6.80;99.90;;;;;;4184639;28;20788;-75
2024/02/18 09:33:41;;;;;;;23.00;11.47;;;6.80;99.90;;;;;;4181896;28;20302;-74
2024/02/18 09:35:43;;;;;;;24.73;12.10;;;6.90;99.90;;;;;;4189419;28;20308;-76
2024/02/18 09:37:45;;;;;;;25.67;11.70;;;6.90;99.90;;;;;;4185400;28;20210;-76
2024/02/18 09:39:47;;;;;;;23.97;11.73;;;7.00;99.90;;;;;;4187757;28;20315;-74
2024/02/18 09:41:51;;;;;;;25.50;11.63;;;7.00;99.90;;;;;;4188918;28;20205;-73
2024/02/18 09:43:54;;;;;;;21.30;10.40;;;7.10;99.90;;;;;;4187366;28;20488;-74
2024/02/18 09:45:59;;;;;;;19.67;10.90;;;7.20;99.90;;;;;;4184852;28;20266;-74
2024/02/18 09:48:03;;;;;;;28.87;11.73;;;7.20;99.90;;;;;;4178985;28;20688;-74
2024/02/18 09:50:09;;;;;;;23.13;11.37;;;7.30;99.90;;;;;;4188222;28;20225;-74
2024/02/18 09:52:13;;;;;;;23.10;10.50;;;7.40;99.90;;;;;;4186235;28;20230;-74
2024/02/18 09:54:16;;;;;;;17.53;10.17;;;7.50;99.90;;;;;;4184191;28;20200;-75
2024/02/18 09:56:20;;;;;;;19.17;9.77;;;7.60;99.90;;;;;;4188319;28;20669;-74
2024/02/18 09:58:22;;;;;;;24.57;12.20;;;7.70;99.90;;;;;;4179380;28;20202;-75
2024/02/18 10:00:25;;;;;;;21.73;10.93;;;7.80;99.90;;;;;;4184841;28;20210;-74
2024/02/18 10:02:27;;;;;;;21.17;10.20;;;7.90;99.90;;;;;;4180685;28;20741;-80
2024/02/18 10:04:29;;;;;;;21.93;10.33;;;8.00;99.90;;;;;;4187832;28;20287;-79
2024/02/18 10:06:32;;;;;;;22.00;9.60;;;8.00;99.90;;;;;;4189520;28;20235;-78
2024/02/18 10:08:42;;;;;;;19.83;10.37;;;8.10;99.90;;;;;;4188083;28;20214;-74
2024/02/18 10:10:44;;;;;;;21.53;10.73;;;8.10;99.90;;;;;;4187675;28;20217;-78
2024/02/18 10:12:48;;;;;;;21.67;10.60;;;8.20;99.90;;;;;;4187318;28;20250;-78
2024/02/18 10:14:57;;;;;;;20.47;9.73;;;8.30;99.90;;;;;;4187530;28;20754;-77
2024/02/18 10:16:59;;;;;;;22.57;10.70;;;8.30;99.90;;;;;;4188552;28;20203;-75
2024/02/18 10:19:00;;;;;;;18.67;10.33;;;8.40;99.90;;;;;;4184519;28;20295;-75
2024/02/18 10:21:03;;;;;;;20.57;10.50;;;8.50;99.90;;;;;;4185227;28;20192;-75
2024/02/18 10:23:06;;;;;;;20.33;10.07;;;8.60;99.90;;;;;;4181871;28;20224;-74
2024/02/18 10:25:08;;;;;;;17.77;9.70;;;8.70;99.90;;;;;;4183282;28;20673;-74
2024/02/18 10:27:10;;;;;;;20.37;10.40;;;8.80;99.90;;;;;;4182877;28;20216;-74
2024/02/18 10:29:15;;;;;;;20.30;9.40;;;8.90;99.90;;;;;;4184022;28;20285;-75
2024/02/18 10:31:17;;;;;;;18.77;9.70;;;9.00;99.90;;;;;;4181495;28;20691;-73